sensor_id;sensor_type;location;lat;lon;timestamp;P1;durP1;ratioP1;P2;durP2;ratioP2
21615;SDS011;10970;48.714;9.584;2022-10-31T00:02:16;11.80;;;5.47;;
21615;SDS011;10970;48.714;9.584;2022-10-31T00:04:42;8.27;;;5.70;;
21615;SDS011;10970;48.714;9.584;2022-10-31T00:07:07;8.00;;;5.60;;
21615;SDS011;10970;48.714;9.584;2022-10-31T00:09:33;8.17;;;7.47;;
21615;SDS011;10970;48.714;9.584;2022-10-31T00:11:58;9.57;;;6.00;;
21615;SDS011;10970;48.714;9.584;2022-10-31T00:14:24;8.07;;;5.80;;
21615;SDS011;10970;48.714;9.584;2022-10-31T00:16:49;7.13;;;5.60;;
21615;SDS011;10970;48.714;9.584;2022-10-31T00:19:15;10.13;;;6.20;;
21615;SDS011;10970;48.714;9.584;2022-10-31T00:21:41;8.20;;;6.70;;
21615;SDS011;10970;48.714;9.584;2022-10-31T00:24:06;6.83;;;6.00;;
21615;SDS011;10970;48.714;9.584;2022-10-31T00:26:32;6.30;;;5.57;;
21615;SDS011;10970;48.714;9.584;2022-10-31T00:28:58;10.13;;;6.70;;
21615;SDS011;10970;48.714;9.584;2022-10-31T00:31:24;6.80;;;5.20;;
21615;SDS011;10970;48.714;9.584;2022-10-31T00:33:50;7.30;;;6.03;;
21615;SDS011;10970;48.714;9.584;2022-10-31T00:36:16;5.80;;;5.27;;
21615;SDS011;10970;48.714;9.584;2022-10-31T00:38:43;5.30;;;4.80;;
21615;SDS011;10970;48.714;9.584;2022-10-31T00:41:10;7.80;;;5.17;;
21615;SDS011;10970;48.714;9.584;2022-10-31T00:43:36;9.77;;;5.83;;
21615;SDS011;10970;48.714;9.584;2022-10-31T00:46:02;9.10;;;5.40;;
21615;SDS011;10970;48.714;9.584;2022-10-31T00:48:28;5.23;;;4.80;;
21615;SDS011;10970;48.714;9.584;2022-10-31T00:50:54;6.93;;;5.15;;
21615;SDS011;10970;48.714;9.584;2022-10-31T00:53:20;6.80;;;5.20;;
21615;SDS011;10970;48.714;9.584;2022-10-31T00:55:45;8.73;;;5.30;;
21615;SDS011;10970;48.714;9.584;2022-10-31T00:58:11;12.77;;;6.50;;
21615;SDS011;10970;48.714;9.584;2022-10-31T01:00:37;7.60;;;5.77;;
21615;SDS011;10970;48.714;9.584;2022-10-31T01:03:02;14.13;;;6.00;;
21615;SDS011;10970;48.714;9.584;2022-10-31T01:05:28;5.80;;;4.77;;
21615;SDS011;10970;48.714;9.584;2022-10-31T01:07:53;7.77;;;5.23;;
21615;SDS011;10970;48.714;9.584;2022-10-31T01:10:19;7.20;;;5.83;;
21615;SDS011;10970;48.714;9.584;2022-10-31T01:12:46;8.60;;;5.40;;
21615;SDS011;10970;48.714;9.584;2022-10-31T01:15:14;10.70;;;6.00;;
21615;SDS011;10970;48.714;9.584;2022-10-31T01:17:44;8.70;;;7.37;;
21615;SDS011;10970;48.714;9.584;2022-10-31T01:20:11;13.25;;;7.50;;
21615;SDS011;10970;48.714;9.584;2022-10-31T01:22:38;9.68;;;6.47;;
21615;SDS011;10970;48.714;9.584;2022-10-31T01:25:04;7.23;;;5.77;;
21615;SDS011;10970;48.714;9.584;2022-10-31T01:27:31;9.73;;;6.10;;
21615;SDS011;10970;48.714;9.584;2022-10-31T01:29:57;8.30;;;5.07;;
21615;SDS011;10970;48.714;9.584;2022-10-31T01:32:23;7.27;;;5.67;;
21615;SDS011;10970;48.714;9.584;2022-10-31T01:34:49;8.93;;;5.97;;
21615;SDS011;10970;48.714;9.584;2022-10-31T01:37:15;9.77;;;5.30;;
21615;SDS011;10970;48.714;9.584;2022-10-31T01:39:40;6.30;;;4.53;;
21615;SDS011;10970;48.714;9.584;2022-10-31T01:42:06;7.47;;;4.70;;
21615;SDS011;10970;48.714;9.584;2022-10-31T01:52:04;5.20;;;4.70;;
21615;SDS011;10970;48.714;9.584;2022-10-31T01:54:38;6.35;;;5.13;;
21615;SDS011;10970;48.714;9.584;2022-10-31T01:57:06;4.90;;;4.40;;
21615;SDS011;10970;48.714;9.584;2022-10-31T01:59:35;8.43;;;4.70;;
21615;SDS011;10970;48.714;9.584;2022-10-31T02:02:05;9.73;;;4.63;;
21615;SDS011;10970;48.714;9.584;2022-10-31T02:04:32;5.93;;;4.80;;
21615;SDS011;10970;48.714;9.584;2022-10-31T02:07:02;10.52;;;5.15;;
21615;SDS011;10970;48.714;9.584;2022-10-31T02:09:32;8.30;;;5.45;;
21615;SDS011;10970;48.714;9.584;2022-10-31T02:11:59;9.35;;;5.00;;
21615;SDS011;10970;48.714;9.584;2022-10-31T02:14:26;5.68;;;5.18;;
21615;SDS011;10970;48.714;9.584;2022-10-31T02:16:54;7.22;;;4.70;;
21615;SDS011;10970;48.714;9.584;2022-10-31T02:20:04;9.23;;;5.10;;
21615;SDS011;10970;48.714;9.584;2022-10-31T02:25:12;5.03;;;4.00;;
21615;SDS011;10970;48.714;9.584;2022-10-31T02:28:13;4.85;;;4.30;;
21615;SDS011;10970;48.714;9.584;2022-10-31T02:44:05;7.63;;;4.82;;
21615;SDS011;10970;48.714;9.584;2022-10-31T02:46:58;10.70;;;4.72;;
21615;SDS011;10970;48.714;9.584;2022-10-31T02:49:38;6.15;;;4.57;;
21615;SDS011;10970;48.714;9.584;2022-10-31T02:52:29;8.55;;;4.80;;
21615;SDS011;10970;48.714;9.584;2022-10-31T02:54:56;11.35;;;3.80;;
21615;SDS011;10970;48.714;9.584;2022-10-31T02:57:29;5.20;;;4.70;;
21615;SDS011;10970;48.714;9.584;2022-10-31T02:59:59;9.65;;;5.07;;
21615;SDS011;10970;48.714;9.584;2022-10-31T03:05:02;5.77;;;4.30;;
21615;SDS011;10970;48.714;9.584;2022-10-31T03:15:37;6.63;;;3.92;;
21615;SDS011;10970;48.714;9.584;2022-10-31T03:18:15;6.80;;;4.80;;
21615;SDS011;10970;48.714;9.584;2022-10-31T03:20:50;9.23;;;4.13;;
21615;SDS011;10970;48.714;9.584;2022-10-31T03:23:21;4.32;;;3.40;;
21615;SDS011;10970;48.714;9.584;2022-10-31T03:25:50;5.47;;;4.97;;
21615;SDS011;10970;48.714;9.584;2022-10-31T03:28:18;4.85;;;4.15;;
21615;SDS011;10970;48.714;9.584;2022-10-31T03:30:52;9.02;;;4.45;;
21615;SDS011;10970;48.714;9.584;2022-10-31T03:33:21;6.88;;;3.67;;
21615;SDS011;10970;48.714;9.584;2022-10-31T03:35:51;7.40;;;4.18;;
21615;SDS011;10970;48.714;9.584;2022-10-31T03:38:21;6.35;;;4.10;;
21615;SDS011;10970;48.714;9.584;2022-10-31T03:40:47;4.70;;;4.30;;
21615;SDS011;10970;48.714;9.584;2022-10-31T03:43:16;11.95;;;4.32;;
21615;SDS011;10970;48.714;9.584;2022-10-31T03:45:49;6.28;;;4.20;;
21615;SDS011;10970;48.714;9.584;2022-10-31T03:48:15;8.37;;;4.67;;
21615;SDS011;10970;48.714;9.584;2022-10-31T03:53:31;6.32;;;3.30;;
21615;SDS011;10970;48.714;9.584;2022-10-31T03:56:19;9.65;;;4.18;;
21615;SDS011;10970;48.714;9.584;2022-10-31T04:01:57;7.30;;;4.00;;
21615;SDS011;10970;48.714;9.584;2022-10-31T04:04:26;4.05;;;3.65;;
21615;SDS011;10970;48.714;9.584;2022-10-31T04:06:54;3.95;;;3.25;;
21615;SDS011;10970;48.714;9.584;2022-10-31T04:09:22;5.95;;;3.63;;
21615;SDS011;10970;48.714;9.584;2022-10-31T04:11:51;6.88;;;3.65;;
21615;SDS011;10970;48.714;9.584;2022-10-31T04:14:19;8.48;;;3.50;;
21615;SDS011;10970;48.714;9.584;2022-10-31T04:16:49;7.03;;;4.30;;
21615;SDS011;10970;48.714;9.584;2022-10-31T04:19:14;8.23;;;4.00;;
21615;SDS011;10970;48.714;9.584;2022-10-31T04:21:40;4.90;;;3.57;;
21615;SDS011;10970;48.714;9.584;2022-10-31T04:24:08;6.00;;;4.15;;
21615;SDS011;10970;48.714;9.584;2022-10-31T04:26:34;5.82;;;4.78;;
21615;SDS011;10970;48.714;9.584;2022-10-31T04:29:00;5.10;;;3.83;;
21615;SDS011;10970;48.714;9.584;2022-10-31T04:31:25;8.67;;;4.80;;
21615;SDS011;10970;48.714;9.584;2022-10-31T04:33:52;6.05;;;3.22;;
21615;SDS011;10970;48.714;9.584;2022-10-31T04:36:17;3.93;;;3.50;;
21615;SDS011;10970;48.714;9.584;2022-10-31T04:38:43;7.47;;;4.50;;
21615;SDS011;10970;48.714;9.584;2022-10-31T04:41:08;5.70;;;3.67;;
21615;SDS011;10970;48.714;9.584;2022-10-31T04:43:34;4.47;;;3.90;;
21615;SDS011;10970;48.714;9.584;2022-10-31T04:46:00;8.73;;;4.20;;
21615;SDS011;10970;48.714;9.584;2022-10-31T04:48:25;8.47;;;4.00;;
21615;SDS011;10970;48.714;9.584;2022-10-31T04:50:51;4.40;;;4.00;;
21615;SDS011;10970;48.714;9.584;2022-10-31T04:53:17;4.20;;;3.80;;
21615;SDS011;10970;48.714;9.584;2022-10-31T04:55:42;12.27;;;4.70;;
21615;SDS011;10970;48.714;9.584;2022-10-31T04:58:08;5.93;;;4.27;;
21615;SDS011;10970;48.714;9.584;2022-10-31T05:00:33;5.53;;;3.80;;
21615;SDS011;10970;48.714;9.584;2022-10-31T05:02:59;6.13;;;4.60;;
21615;SDS011;10970;48.714;9.584;2022-10-31T05:05:28;5.70;;;4.20;;
21615;SDS011;10970;48.714;9.584;2022-10-31T05:07:55;6.00;;;5.05;;
21615;SDS011;10970;48.714;9.584;2022-10-31T05:10:23;4.23;;;3.37;;
21615;SDS011;10970;48.714;9.584;2022-10-31T05:12:54;5.13;;;4.63;;
21615;SDS011;10970;48.714;9.584;2022-10-31T05:15:22;7.72;;;4.78;;
21615;SDS011;10970;48.714;9.584;2022-10-31T05:17:48;3.97;;;3.67;;
21615;SDS011;10970;48.714;9.584;2022-10-31T05:20:15;4.63;;;4.22;;
21615;SDS011;10970;48.714;9.584;2022-10-31T05:22:43;5.47;;;3.72;;
21615;SDS011;10970;48.714;9.584;2022-10-31T05:25:17;11.02;;;4.47;;
21615;SDS011;10970;48.714;9.584;2022-10-31T05:27:44;8.45;;;4.20;;
21615;SDS011;10970;48.714;9.584;2022-10-31T05:30:12;7.63;;;4.00;;
21615;SDS011;10970;48.714;9.584;2022-10-31T05:32:41;5.50;;;4.25;;
21615;SDS011;10970;48.714;9.584;2022-10-31T05:35:14;4.28;;;3.78;;
21615;SDS011;10970;48.714;9.584;2022-10-31T05:37:44;4.35;;;3.78;;
21615;SDS011;10970;48.714;9.584;2022-10-31T05:40:11;7.60;;;4.10;;
21615;SDS011;10970;48.714;9.584;2022-10-31T05:42:38;4.63;;;3.95;;
21615;SDS011;10970;48.714;9.584;2022-10-31T05:45:05;4.28;;;3.95;;
21615;SDS011;10970;48.714;9.584;2022-10-31T05:47:32;4.15;;;3.63;;
21615;SDS011;10970;48.714;9.584;2022-10-31T05:49:58;5.67;;;4.23;;
21615;SDS011;10970;48.714;9.584;2022-10-31T05:52:23;5.60;;;4.87;;
21615;SDS011;10970;48.714;9.584;2022-10-31T05:54:49;5.97;;;4.10;;
21615;SDS011;10970;48.714;9.584;2022-10-31T05:57:14;9.73;;;5.30;;
21615;SDS011;10970;48.714;9.584;2022-10-31T05:59:40;5.33;;;4.83;;
21615;SDS011;10970;48.714;9.584;2022-10-31T06:02:06;5.33;;;4.00;;
21615;SDS011;10970;48.714;9.584;2022-10-31T06:04:31;6.70;;;4.80;;
21615;SDS011;10970;48.714;9.584;2022-10-31T06:06:57;5.70;;;4.63;;
21615;SDS011;10970;48.714;9.584;2022-10-31T06:09:22;5.13;;;4.07;;
21615;SDS011;10970;48.714;9.584;2022-10-31T06:11:48;6.63;;;3.93;;
21615;SDS011;10970;48.714;9.584;2022-10-31T06:14:14;6.93;;;4.87;;
21615;SDS011;10970;48.714;9.584;2022-10-31T06:16:39;4.20;;;3.70;;
21615;SDS011;10970;48.714;9.584;2022-10-31T06:19:05;5.20;;;4.70;;
21615;SDS011;10970;48.714;9.584;2022-10-31T06:21:31;10.33;;;5.30;;
21615;SDS011;10970;48.714;9.584;2022-10-31T06:23:56;6.47;;;4.10;;
21615;SDS011;10970;48.714;9.584;2022-10-31T06:26:22;5.33;;;4.40;;
21615;SDS011;10970;48.714;9.584;2022-10-31T06:28:47;5.40;;;4.23;;
21615;SDS011;10970;48.714;9.584;2022-10-31T06:31:13;5.00;;;4.50;;
21615;SDS011;10970;48.714;9.584;2022-10-31T06:33:40;6.80;;;3.57;;
21615;SDS011;10970;48.714;9.584;2022-10-31T06:36:09;6.50;;;5.00;;
21615;SDS011;10970;48.714;9.584;2022-10-31T06:38:35;5.82;;;5.07;;
21615;SDS011;10970;48.714;9.584;2022-10-31T06:41:04;6.13;;;5.53;;
21615;SDS011;10970;48.714;9.584;2022-10-31T06:43:31;5.07;;;4.60;;
21615;SDS011;10970;48.714;9.584;2022-10-31T06:45:57;4.53;;;4.13;;
21615;SDS011;10970;48.714;9.584;2022-10-31T06:48:26;8.02;;;4.60;;
21615;SDS011;10970;48.714;9.584;2022-10-31T06:50:52;5.37;;;4.43;;
21615;SDS011;10970;48.714;9.584;2022-10-31T06:53:17;10.03;;;5.17;;
21615;SDS011;10970;48.714;9.584;2022-10-31T06:55:43;9.03;;;5.00;;
21615;SDS011;10970;48.714;9.584;2022-10-31T06:58:09;6.30;;;4.43;;
21615;SDS011;10970;48.714;9.584;2022-10-31T07:00:35;6.07;;;4.97;;
21615;SDS011;10970;48.714;9.584;2022-10-31T07:03:11;7.50;;;4.93;;
21615;SDS011;10970;48.714;9.584;2022-10-31T07:05:38;4.53;;;4.10;;
21615;SDS011;10970;48.714;9.584;2022-10-31T07:08:05;4.43;;;4.03;;
21615;SDS011;10970;48.714;9.584;2022-10-31T07:10:32;3.88;;;3.47;;
21615;SDS011;10970;48.714;9.584;2022-10-31T07:13:00;6.32;;;4.38;;
21615;SDS011;10970;48.714;9.584;2022-10-31T07:15:27;5.45;;;4.88;;
21615;SDS011;10970;48.714;9.584;2022-10-31T07:17:58;4.90;;;4.40;;
21615;SDS011;10970;48.714;9.584;2022-10-31T07:20:29;6.50;;;5.15;;
21615;SDS011;10970;48.714;9.584;2022-10-31T07:22:55;7.75;;;5.88;;
21615;SDS011;10970;48.714;9.584;2022-10-31T07:25:21;11.80;;;6.37;;
21615;SDS011;10970;48.714;9.584;2022-10-31T07:27:47;7.45;;;5.72;;
21615;SDS011;10970;48.714;9.584;2022-10-31T07:30:13;6.80;;;5.40;;
21615;SDS011;10970;48.714;9.584;2022-10-31T07:32:43;6.18;;;5.00;;
21615;SDS011;10970;48.714;9.584;2022-10-31T07:35:14;8.50;;;5.95;;
21615;SDS011;10970;48.714;9.584;2022-10-31T07:37:44;7.45;;;5.20;;
21615;SDS011;10970;48.714;9.584;2022-10-31T07:40:10;9.23;;;4.57;;
21615;SDS011;10970;48.714;9.584;2022-10-31T07:42:36;4.45;;;4.05;;
21615;SDS011;10970;48.714;9.584;2022-10-31T07:45:03;5.20;;;4.43;;
21615;SDS011;10970;48.714;9.584;2022-10-31T07:47:37;5.38;;;4.88;;
21615;SDS011;10970;48.714;9.584;2022-10-31T07:50:04;7.03;;;5.50;;
21615;SDS011;10970;48.714;9.584;2022-10-31T07:52:30;5.77;;;4.00;;
21615;SDS011;10970;48.714;9.584;2022-10-31T07:54:55;4.83;;;4.40;;
21615;SDS011;10970;48.714;9.584;2022-10-31T07:57:21;4.73;;;4.33;;
21615;SDS011;10970;48.714;9.584;2022-10-31T07:59:46;5.23;;;4.70;;
21615;SDS011;10970;48.714;9.584;2022-10-31T08:02:12;6.37;;;4.37;;
21615;SDS011;10970;48.714;9.584;2022-10-31T08:04:38;6.33;;;4.07;;
21615;SDS011;10970;48.714;9.584;2022-10-31T08:07:03;8.93;;;3.80;;
21615;SDS011;10970;48.714;9.584;2022-10-31T08:09:29;9.53;;;5.10;;
21615;SDS011;10970;48.714;9.584;2022-10-31T08:11:55;10.90;;;4.87;;
21615;SDS011;10970;48.714;9.584;2022-10-31T08:14:20;6.97;;;4.97;;
21615;SDS011;10970;48.714;9.584;2022-10-31T08:16:47;5.87;;;4.97;;
21615;SDS011;10970;48.714;9.584;2022-10-31T08:19:13;9.10;;;4.50;;
21615;SDS011;10970;48.714;9.584;2022-10-31T08:21:39;9.03;;;5.87;;
21615;SDS011;10970;48.714;9.584;2022-10-31T08:24:04;5.03;;;4.07;;
21615;SDS011;10970;48.714;9.584;2022-10-31T08:26:30;6.50;;;4.77;;
21615;SDS011;10970;48.714;9.584;2022-10-31T08:28:56;8.53;;;5.30;;
21615;SDS011;10970;48.714;9.584;2022-10-31T08:31:22;8.83;;;5.07;;
21615;SDS011;10970;48.714;9.584;2022-10-31T08:33:48;7.80;;;6.07;;
21615;SDS011;10970;48.714;9.584;2022-10-31T08:36:13;5.53;;;4.43;;
21615;SDS011;10970;48.714;9.584;2022-10-31T08:38:39;8.80;;;5.03;;
21615;SDS011;10970;48.714;9.584;2022-10-31T08:41:05;9.80;;;6.30;;
21615;SDS011;10970;48.714;9.584;2022-10-31T08:43:30;4.80;;;4.37;;
21615;SDS011;10970;48.714;9.584;2022-10-31T08:45:56;9.90;;;5.40;;
21615;SDS011;10970;48.714;9.584;2022-10-31T08:48:22;4.97;;;4.50;;
21615;SDS011;10970;48.714;9.584;2022-10-31T08:50:47;5.97;;;4.93;;
21615;SDS011;10970;48.714;9.584;2022-10-31T08:53:17;8.07;;;5.00;;
21615;SDS011;10970;48.714;9.584;2022-10-31T08:55:44;5.70;;;5.07;;
21615;SDS011;10970;48.714;9.584;2022-10-31T08:58:15;4.87;;;4.37;;
21615;SDS011;10970;48.714;9.584;2022-10-31T09:00:42;5.13;;;4.57;;
21615;SDS011;10970;48.714;9.584;2022-10-31T09:03:10;5.40;;;4.07;;
21615;SDS011;10970;48.714;9.584;2022-10-31T09:05:37;7.27;;;5.00;;
21615;SDS011;10970;48.714;9.584;2022-10-31T09:08:03;6.10;;;5.57;;
21615;SDS011;10970;48.714;9.584;2022-10-31T09:10:31;6.10;;;4.70;;
21615;SDS011;10970;48.714;9.584;2022-10-31T09:12:59;8.47;;;4.73;;
21615;SDS011;10970;48.714;9.584;2022-10-31T09:15:26;7.37;;;5.53;;
21615;SDS011;10970;48.714;9.584;2022-10-31T09:17:53;8.40;;;5.57;;
21615;SDS011;10970;48.714;9.584;2022-10-31T09:20:19;5.20;;;4.70;;
21615;SDS011;10970;48.714;9.584;2022-10-31T09:22:45;7.70;;;5.63;;
21615;SDS011;10970;48.714;9.584;2022-10-31T09:25:12;5.53;;;4.70;;
21615;SDS011;10970;48.714;9.584;2022-10-31T09:27:38;9.37;;;7.00;;
21615;SDS011;10970;48.714;9.584;2022-10-31T09:30:04;10.03;;;5.40;;
21615;SDS011;10970;48.714;9.584;2022-10-31T09:32:30;9.67;;;4.57;;
21615;SDS011;10970;48.714;9.584;2022-10-31T09:34:56;9.30;;;4.80;;
21615;SDS011;10970;48.714;9.584;2022-10-31T09:37:22;10.30;;;5.57;;
21615;SDS011;10970;48.714;9.584;2022-10-31T09:39:48;8.77;;;5.70;;
21615;SDS011;10970;48.714;9.584;2022-10-31T09:44:58;6.73;;;5.47;;
21615;SDS011;10970;48.714;9.584;2022-10-31T09:50:53;6.33;;;4.53;;
21615;SDS011;10970;48.714;9.584;2022-10-31T09:53:42;8.40;;;5.70;;
21615;SDS011;10970;48.714;9.584;2022-10-31T09:56:19;7.63;;;4.77;;
21615;SDS011;10970;48.714;9.584;2022-10-31T09:58:47;7.77;;;5.20;;
21615;SDS011;10970;48.714;9.584;2022-10-31T10:03:47;6.17;;;4.83;;
21615;SDS011;10970;48.714;9.584;2022-10-31T10:06:19;8.90;;;4.80;;
21615;SDS011;10970;48.714;9.584;2022-10-31T10:08:49;10.03;;;4.43;;
21615;SDS011;10970;48.714;9.584;2022-10-31T10:11:30;8.40;;;5.00;;
21615;SDS011;10970;48.714;9.584;2022-10-31T10:16:55;7.90;;;5.00;;
21615;SDS011;10970;48.714;9.584;2022-10-31T10:25:22;12.23;;;4.87;;
21615;SDS011;10970;48.714;9.584;2022-10-31T10:33:09;13.70;;;7.03;;
21615;SDS011;10970;48.714;9.584;2022-10-31T10:41:10;4.60;;;4.20;;
21615;SDS011;10970;48.714;9.584;2022-10-31T10:43:39;8.80;;;5.17;;
21615;SDS011;10970;48.714;9.584;2022-10-31T11:00:13;7.67;;;4.63;;
21615;SDS011;10970;48.714;9.584;2022-10-31T11:02:51;8.37;;;6.13;;
21615;SDS011;10970;48.714;9.584;2022-10-31T11:08:00;6.70;;;5.90;;
21615;SDS011;10970;48.714;9.584;2022-10-31T11:10:26;5.87;;;4.70;;
21615;SDS011;10970;48.714;9.584;2022-10-31T11:13:00;7.73;;;6.93;;
21615;SDS011;10970;48.714;9.584;2022-10-31T11:15:29;10.43;;;5.77;;
21615;SDS011;10970;48.714;9.584;2022-10-31T11:17:57;7.70;;;4.80;;
21615;SDS011;10970;48.714;9.584;2022-10-31T11:20:24;4.87;;;4.37;;
21615;SDS011;10970;48.714;9.584;2022-10-31T11:25:56;10.87;;;5.53;;
21615;SDS011;10970;48.714;9.584;2022-10-31T11:28:26;15.57;;;5.67;;
21615;SDS011;10970;48.714;9.584;2022-10-31T11:31:01;9.90;;;4.53;;
21615;SDS011;10970;48.714;9.584;2022-10-31T11:34:20;10.93;;;4.43;;
21615;SDS011;10970;48.714;9.584;2022-10-31T11:36:31;8.07;;;5.27;;
21615;SDS011;10970;48.714;9.584;2022-10-31T11:39:00;9.80;;;4.70;;
21615;SDS011;10970;48.714;9.584;2022-10-31T11:41:30;8.07;;;5.43;;
21615;SDS011;10970;48.714;9.584;2022-10-31T11:43:59;6.93;;;5.00;;
21615;SDS011;10970;48.714;9.584;2022-10-31T11:46:33;8.80;;;5.70;;
21615;SDS011;10970;48.714;9.584;2022-10-31T11:48:59;5.37;;;4.67;;
21615;SDS011;10970;48.714;9.584;2022-10-31T11:51:27;6.50;;;4.50;;
21615;SDS011;10970;48.714;9.584;2022-10-31T11:53:57;7.43;;;4.83;;
21615;SDS011;10970;48.714;9.584;2022-10-31T11:56:24;7.23;;;5.60;;
21615;SDS011;10970;48.714;9.584;2022-10-31T11:59:01;10.77;;;4.60;;
21615;SDS011;10970;48.714;9.584;2022-10-31T12:01:29;6.63;;;4.83;;
21615;SDS011;10970;48.714;9.584;2022-10-31T12:04:02;5.50;;;4.40;;
21615;SDS011;10970;48.714;9.584;2022-10-31T12:06:35;8.77;;;5.13;;
21615;SDS011;10970;48.714;9.584;2022-10-31T12:11:51;7.67;;;4.97;;
21615;SDS011;10970;48.714;9.584;2022-10-31T12:14:53;7.00;;;4.97;;
21615;SDS011;10970;48.714;9.584;2022-10-31T12:20:16;8.90;;;5.20;;
21615;SDS011;10970;48.714;9.584;2022-10-31T12:25:52;5.17;;;4.67;;
21615;SDS011;10970;48.714;9.584;2022-10-31T12:28:57;5.93;;;4.57;;
21615;SDS011;10970;48.714;9.584;2022-10-31T12:53:16;5.93;;;5.17;;
21615;SDS011;10970;48.714;9.584;2022-10-31T12:58:23;8.23;;;4.70;;
21615;SDS011;10970;48.714;9.584;2022-10-31T13:04:05;5.07;;;4.57;;
21615;SDS011;10970;48.714;9.584;2022-10-31T13:06:55;12.63;;;5.40;;
21615;SDS011;10970;48.714;9.584;2022-10-31T13:09:36;7.57;;;5.87;;
21615;SDS011;10970;48.714;9.584;2022-10-31T13:12:10;8.43;;;4.80;;
21615;SDS011;10970;48.714;9.584;2022-10-31T13:14:44;14.50;;;5.80;;
21615;SDS011;10970;48.714;9.584;2022-10-31T13:17:38;10.47;;;7.20;;
21615;SDS011;10970;48.714;9.584;2022-10-31T13:22:53;9.20;;;5.90;;
21615;SDS011;10970;48.714;9.584;2022-10-31T13:25:32;7.23;;;4.50;;
21615;SDS011;10970;48.714;9.584;2022-10-31T13:28:03;11.33;;;5.57;;
21615;SDS011;10970;48.714;9.584;2022-10-31T13:30:38;13.77;;;6.30;;
21615;SDS011;10970;48.714;9.584;2022-10-31T13:44:21;11.53;;;5.87;;
21615;SDS011;10970;48.714;9.584;2022-10-31T13:46:49;10.00;;;5.90;;
21615;SDS011;10970;48.714;9.584;2022-10-31T13:49:24;6.00;;;5.20;;
21615;SDS011;10970;48.714;9.584;2022-10-31T13:54:52;18.13;;;6.77;;
21615;SDS011;10970;48.714;9.584;2022-10-31T14:02:47;7.00;;;5.50;;
21615;SDS011;10970;48.714;9.584;2022-10-31T14:05:21;6.40;;;5.03;;
21615;SDS011;10970;48.714;9.584;2022-10-31T14:07:50;13.57;;;6.13;;
21615;SDS011;10970;48.714;9.584;2022-10-31T14:10:22;10.67;;;5.10;;
21615;SDS011;10970;48.714;9.584;2022-10-31T14:13:02;8.73;;;5.47;;
21615;SDS011;10970;48.714;9.584;2022-10-31T14:15:56;8.33;;;5.27;;
21615;SDS011;10970;48.714;9.584;2022-10-31T14:18:34;14.73;;;5.53;;
21615;SDS011;10970;48.714;9.584;2022-10-31T14:23:51;10.27;;;5.43;;
21615;SDS011;10970;48.714;9.584;2022-10-31T14:28:54;8.10;;;5.00;;
21615;SDS011;10970;48.714;9.584;2022-10-31T14:31:29;9.97;;;6.70;;
21615;SDS011;10970;48.714;9.584;2022-10-31T14:36:54;7.17;;;5.70;;
21615;SDS011;10970;48.714;9.584;2022-10-31T14:52:46;7.60;;;5.83;;
21615;SDS011;10970;48.714;9.584;2022-10-31T14:55:15;9.90;;;6.33;;
21615;SDS011;10970;48.714;9.584;2022-10-31T14:57:45;11.80;;;5.53;;
21615;SDS011;10970;48.714;9.584;2022-10-31T15:00:19;10.60;;;6.30;;
21615;SDS011;10970;48.714;9.584;2022-10-31T15:05:14;8.30;;;6.43;;
21615;SDS011;10970;48.714;9.584;2022-10-31T15:07:51;14.33;;;7.07;;
21615;SDS011;10970;48.714;9.584;2022-10-31T15:10:28;6.47;;;5.73;;
21615;SDS011;10970;48.714;9.584;2022-10-31T15:13:07;10.03;;;6.03;;
21615;SDS011;10970;48.714;9.584;2022-10-31T15:15:43;14.63;;;7.03;;
21615;SDS011;10970;48.714;9.584;2022-10-31T15:18:13;10.13;;;6.40;;
21615;SDS011;10970;48.714;9.584;2022-10-31T15:20:43;7.57;;;6.37;;
21615;SDS011;10970;48.714;9.584;2022-10-31T15:23:10;7.63;;;6.20;;
21615;SDS011;10970;48.714;9.584;2022-10-31T15:25:46;11.37;;;5.50;;
21615;SDS011;10970;48.714;9.584;2022-10-31T15:28:13;10.73;;;6.90;;
21615;SDS011;10970;48.714;9.584;2022-10-31T15:30:48;11.33;;;5.50;;
21615;SDS011;10970;48.714;9.584;2022-10-31T15:33:19;12.20;;;5.70;;
21615;SDS011;10970;48.714;9.584;2022-10-31T15:35:57;12.33;;;7.20;;
21615;SDS011;10970;48.714;9.584;2022-10-31T15:38:25;9.40;;;5.47;;
21615;SDS011;10970;48.714;9.584;2022-10-31T15:41:04;8.50;;;6.77;;
21615;SDS011;10970;48.714;9.584;2022-10-31T15:43:44;10.03;;;5.60;;
21615;SDS011;10970;48.714;9.584;2022-10-31T15:46:12;7.63;;;5.77;;
21615;SDS011;10970;48.714;9.584;2022-10-31T15:48:38;6.30;;;5.40;;
21615;SDS011;10970;48.714;9.584;2022-10-31T15:51:08;11.27;;;5.70;;
21615;SDS011;10970;48.714;9.584;2022-10-31T15:53:35;12.77;;;5.43;;
21615;SDS011;10970;48.714;9.584;2022-10-31T15:56:18;10.40;;;5.20;;
21615;SDS011;10970;48.714;9.584;2022-10-31T15:58:53;9.10;;;5.80;;
21615;SDS011;10970;48.714;9.584;2022-10-31T16:06:35;10.47;;;5.50;;
21615;SDS011;10970;48.714;9.584;2022-10-31T16:09:00;7.70;;;6.00;;
21615;SDS011;10970;48.714;9.584;2022-10-31T16:14:04;10.17;;;6.27;;
21615;SDS011;10970;48.714;9.584;2022-10-31T16:16:57;14.60;;;6.77;;
21615;SDS011;10970;48.714;9.584;2022-10-31T16:19:25;6.60;;;5.70;;
21615;SDS011;10970;48.714;9.584;2022-10-31T16:21:56;10.73;;;5.87;;
21615;SDS011;10970;48.714;9.584;2022-10-31T16:24:30;9.50;;;6.83;;
21615;SDS011;10970;48.714;9.584;2022-10-31T16:27:05;12.33;;;6.90;;
21615;SDS011;10970;48.714;9.584;2022-10-31T16:32:00;10.40;;;6.77;;
21615;SDS011;10970;48.714;9.584;2022-10-31T16:34:26;10.23;;;7.20;;
21615;SDS011;10970;48.714;9.584;2022-10-31T16:36:52;8.50;;;6.47;;
21615;SDS011;10970;48.714;9.584;2022-10-31T16:39:18;9.37;;;7.63;;
21615;SDS011;10970;48.714;9.584;2022-10-31T16:41:45;9.10;;;7.77;;
21615;SDS011;10970;48.714;9.584;2022-10-31T16:44:17;13.67;;;7.83;;
21615;SDS011;10970;48.714;9.584;2022-10-31T16:46:47;12.50;;;7.80;;
21615;SDS011;10970;48.714;9.584;2022-10-31T16:49:26;12.47;;;8.93;;
21615;SDS011;10970;48.714;9.584;2022-10-31T16:51:52;14.73;;;7.53;;
21615;SDS011;10970;48.714;9.584;2022-10-31T16:54:17;13.37;;;7.83;;
21615;SDS011;10970;48.714;9.584;2022-10-31T16:56:43;12.20;;;8.03;;
21615;SDS011;10970;48.714;9.584;2022-10-31T16:59:10;17.77;;;9.50;;
21615;SDS011;10970;48.714;9.584;2022-10-31T17:01:37;15.27;;;8.90;;
21615;SDS011;10970;48.714;9.584;2022-10-31T17:04:04;10.33;;;8.70;;
21615;SDS011;10970;48.714;9.584;2022-10-31T17:06:30;12.33;;;9.00;;
21615;SDS011;10970;48.714;9.584;2022-10-31T17:08:56;12.53;;;8.57;;
21615;SDS011;10970;48.714;9.584;2022-10-31T17:11:22;9.63;;;7.93;;
21615;SDS011;10970;48.714;9.584;2022-10-31T17:13:49;11.30;;;8.93;;
21615;SDS011;10970;48.714;9.584;2022-10-31T17:16:15;11.07;;;8.53;;
21615;SDS011;10970;48.714;9.584;2022-10-31T17:18:41;10.30;;;9.23;;
21615;SDS011;10970;48.714;9.584;2022-10-31T17:21:14;14.90;;;11.43;;
21615;SDS011;10970;48.714;9.584;2022-10-31T17:23:45;17.90;;;10.20;;
21615;SDS011;10970;48.714;9.584;2022-10-31T17:26:11;15.37;;;9.60;;
21615;SDS011;10970;48.714;9.584;2022-10-31T17:28:36;16.53;;;9.67;;
21615;SDS011;10970;48.714;9.584;2022-10-31T17:31:02;17.77;;;10.30;;
21615;SDS011;10970;48.714;9.584;2022-10-31T17:33:27;25.93;;;16.67;;
21615;SDS011;10970;48.714;9.584;2022-10-31T17:35:53;25.20;;;16.27;;
21615;SDS011;10970;48.714;9.584;2022-10-31T17:38:19;12.30;;;10.10;;
21615;SDS011;10970;48.714;9.584;2022-10-31T17:40:44;15.13;;;11.03;;
21615;SDS011;10970;48.714;9.584;2022-10-31T17:43:10;18.70;;;11.40;;
21615;SDS011;10970;48.714;9.584;2022-10-31T17:45:37;17.50;;;12.07;;
21615;SDS011;10970;48.714;9.584;2022-10-31T17:48:04;20.50;;;11.97;;
21615;SDS011;10970;48.714;9.584;2022-10-31T17:50:30;17.20;;;11.83;;
21615;SDS011;10970;48.714;9.584;2022-10-31T17:52:56;13.90;;;10.07;;
21615;SDS011;10970;48.714;9.584;2022-10-31T17:55:23;17.33;;;11.00;;
21615;SDS011;10970;48.714;9.584;2022-10-31T17:57:48;13.87;;;10.30;;